sensor_id;sensor_type;location;lat;lon;timestamp;temperature;humidity
64620;DHT22;51029;51.058;13.826;2023-08-24T00:01:25;18.20;99.90
64620;DHT22;51029;51.058;13.826;2023-08-24T00:03:51;18.20;99.90
64620;DHT22;51029;51.058;13.826;2023-08-24T00:06:17;18.10;99.90
64620;DHT22;51029;51.058;13.826;2023-08-24T00:08:43;18.10;99.90
64620;DHT22;51029;51.058;13.826;2023-08-24T00:11:09;18.10;99.90
64620;DHT22;51029;51.058;13.826;2023-08-24T00:13:37;18.10;99.90
64620;DHT22;51029;51.058;13.826;2023-08-24T00:16:02;18.00;99.90
64620;DHT22;51029;51.058;13.826;2023-08-24T00:18:29;18.00;99.90
64620;DHT22;51029;51.058;13.826;2023-08-24T00:20:55;18.00;99.90
64620;DHT22;51029;51.058;13.826;2023-08-24T00:23:20;17.90;99.90
64620;DHT22;51029;51.058;13.826;2023-08-24T00:25:46;17.90;99.90
64620;DHT22;51029;51.058;13.826;2023-08-24T00:28:11;17.80;99.90
64620;DHT22;51029;51.058;13.826;2023-08-24T00:30:37;17.80;99.90
64620;DHT22;51029;51.058;13.826;2023-08-24T00:33:03;17.80;99.90
64620;DHT22;51029;51.058;13.826;2023-08-24T00:35:28;17.80;99.90
64620;DHT22;51029;51.058;13.826;2023-08-24T00:37:55;17.80;99.90
64620;DHT22;51029;51.058;13.826;2023-08-24T00:40:20;17.70;99.90
64620;DHT22;51029;51.058;13.826;2023-08-24T00:42:46;17.70;99.90
64620;DHT22;51029;51.058;13.826;2023-08-24T00:45:12;17.70;99.90
64620;DHT22;51029;51.058;13.826;2023-08-24T00:47:41;17.60;99.90
64620;DHT22;51029;51.058;13.826;2023-08-24T00:50:07;17.60;99.90
64620;DHT22;51029;51.058;13.826;2023-08-24T00:52:33;17.60;99.90
64620;DHT22;51029;51.058;13.826;2023-08-24T00:55:00;17.60;99.90
64620;DHT22;51029;51.058;13.826;2023-08-24T00:57:27;17.60;99.90
64620;DHT22;51029;51.058;13.826;2023-08-24T00:59:53;17.50;99.90
64620;DHT22;51029;51.058;13.826;2023-08-24T01:02:19;17.50;99.90
64620;DHT22;51029;51.058;13.826;2023-08-24T01:04:46;17.50;99.90
64620;DHT22;51029;51.058;13.826;2023-08-24T01:07:12;17.40;99.90
64620;DHT22;51029;51.058;13.826;2023-08-24T01:09:38;17.40;99.90
64620;DHT22;51029;51.058;13.826;2023-08-24T01:14:53;17.40;99.90
64620;DHT22;51029;51.058;13.826;2023-08-24T01:17:24;17.40;99.90
64620;DHT22;51029;51.058;13.826;2023-08-24T01:19:54;17.30;99.90
64620;DHT22;51029;51.058;13.826;2023-08-24T01:22:33;17.30;99.90
64620;DHT22;51029;51.058;13.826;2023-08-24T01:25:32;17.20;99.90
64620;DHT22;51029;51.058;13.826;2023-08-24T01:28:01;17.20;99.90
64620;DHT22;51029;51.058;13.826;2023-08-24T01:30:28;17.20;99.90
64620;DHT22;51029;51.058;13.826;2023-08-24T01:32:56;17.10;99.90
64620;DHT22;51029;51.058;13.826;2023-08-24T01:35:21;17.10;99.90
64620;DHT22;51029;51.058;13.826;2023-08-24T01:37:47;17.10;99.90
64620;DHT22;51029;51.058;13.826;2023-08-24T01:40:15;17.10;99.90
64620;DHT22;51029;51.058;13.826;2023-08-24T01:43:03;17.00;99.90
64620;DHT22;51029;51.058;13.826;2023-08-24T01:45:30;17.00;99.90
64620;DHT22;51029;51.058;13.826;2023-08-24T01:47:57;17.00;99.90
64620;DHT22;51029;51.058;13.826;2023-08-24T01:50:24;16.90;99.90
64620;DHT22;51029;51.058;13.826;2023-08-24T01:52:50;16.90;99.90
64620;DHT22;51029;51.058;13.826;2023-08-24T01:55:20;16.90;99.90
64620;DHT22;51029;51.058;13.826;2023-08-24T01:57:46;16.90;99.90
64620;DHT22;51029;51.058;13.826;2023-08-24T02:00:12;16.80;99.90
64620;DHT22;51029;51.058;13.826;2023-08-24T02:02:37;16.80;99.90
64620;DHT22;51029;51.058;13.826;2023-08-24T02:05:03;16.70;99.90
64620;DHT22;51029;51.058;13.826;2023-08-24T02:07:29;16.70;99.90
64620;DHT22;51029;51.058;13.826;2023-08-24T02:09:55;16.70;99.90
64620;DHT22;51029;51.058;13.826;2023-08-24T02:12:20;16.60;99.90
64620;DHT22;51029;51.058;13.826;2023-08-24T02:14:46;16.60;99.90
64620;DHT22;51029;51.058;13.826;2023-08-24T02:17:11;16.60;99.90
64620;DHT22;51029;51.058;13.826;2023-08-24T02:19:37;16.70;99.90
64620;DHT22;51029;51.058;13.826;2023-08-24T02:22:03;16.60;99.90
64620;DHT22;51029;51.058;13.826;2023-08-24T02:24:28;16.60;99.90
64620;DHT22;51029;51.058;13.826;2023-08-24T02:26:54;16.60;99.90
64620;DHT22;51029;51.058;13.826;2023-08-24T02:29:19;16.60;99.90
64620;DHT22;51029;51.058;13.826;2023-08-24T02:31:45;16.50;99.90
64620;DHT22;51029;51.058;13.826;2023-08-24T02:34:10;16.50;99.90
64620;DHT22;51029;51.058;13.826;2023-08-24T02:36:36;16.50;99.90
64620;DHT22;51029;51.058;13.826;2023-08-24T02:39:01;16.50;99.90
64620;DHT22;51029;51.058;13.826;2023-08-24T02:41:27;16.40;99.90
64620;DHT22;51029;51.058;13.826;2023-08-24T02:43:53;16.40;99.90
64620;DHT22;51029;51.058;13.826;2023-08-24T02:46:20;16.40;99.90
64620;DHT22;51029;51.058;13.826;2023-08-24T02:48:46;16.40;99.90
64620;DHT22;51029;51.058;13.826;2023-08-24T02:51:13;16.40;99.90
64620;DHT22;51029;51.058;13.826;2023-08-24T02:53:38;16.40;99.90
64620;DHT22;51029;51.058;13.826;2023-08-24T02:56:04;16.30;99.90
64620;DHT22;51029;51.058;13.826;2023-08-24T02:58:30;16.30;99.90
64620;DHT22;51029;51.058;13.826;2023-08-24T03:00:56;16.30;99.90
64620;DHT22;51029;51.058;13.826;2023-08-24T03:03:23;16.20;99.90
64620;DHT22;51029;51.058;13.826;2023-08-24T03:06:08;16.20;99.90
64620;DHT22;51029;51.058;13.826;2023-08-24T03:08:34;16.20;99.90
64620;DHT22;51029;51.058;13.826;2023-08-24T03:11:01;16.20;99.90
64620;DHT22;51029;51.058;13.826;2023-08-24T03:13:28;16.20;99.90
64620;DHT22;51029;51.058;13.826;2023-08-24T03:15:54;16.10;99.90
64620;DHT22;51029;51.058;13.826;2023-08-24T03:18:20;16.10;99.90
64620;DHT22;51029;51.058;13.826;2023-08-24T03:20:47;16.10;99.90
64620;DHT22;51029;51.058;13.826;2023-08-24T03:23:13;16.10;99.90
64620;DHT22;51029;51.058;13.826;2023-08-24T03:25:41;16.10;99.90
64620;DHT22;51029;51.058;13.826;2023-08-24T03:28:07;16.10;99.90
64620;DHT22;51029;51.058;13.826;2023-08-24T03:30:37;16.00;99.90
64620;DHT22;51029;51.058;13.826;2023-08-24T03:33:04;16.00;99.90
64620;DHT22;51029;51.058;13.826;2023-08-24T03:35:33;16.00;99.90
64620;DHT22;51029;51.058;13.826;2023-08-24T03:37:59;16.00;99.90
64620;DHT22;51029;51.058;13.826;2023-08-24T03:40:24;16.00;99.90
64620;DHT22;51029;51.058;13.826;2023-08-24T03:42:50;16.00;99.90
64620;DHT22;51029;51.058;13.826;2023-08-24T03:45:16;15.90;99.90
64620;DHT22;51029;51.058;13.826;2023-08-24T03:47:41;15.90;99.90
64620;DHT22;51029;51.058;13.826;2023-08-24T03:50:07;15.90;99.90
64620;DHT22;51029;51.058;13.826;2023-08-24T03:52:33;15.80;99.90
64620;DHT22;51029;51.058;13.826;2023-08-24T03:54:58;15.80;99.90
64620;DHT22;51029;51.058;13.826;2023-08-24T03:57:24;15.80;99.90
64620;DHT22;51029;51.058;13.826;2023-08-24T03:59:50;15.80;99.90
64620;DHT22;51029;51.058;13.826;2023-08-24T04:02:15;15.80;99.90
64620;DHT22;51029;51.058;13.826;2023-08-24T04:04:41;15.80;99.90
64620;DHT22;51029;51.058;13.826;2023-08-24T04:07:07;15.80;99.90
64620;DHT22;51029;51.058;13.826;2023-08-24T04:09:32;15.80;99.90
64620;DHT22;51029;51.058;13.826;2023-08-24T04:11:58;15.80;99.90
64620;DHT22;51029;51.058;13.826;2023-08-24T04:14:23;15.80;99.90
64620;DHT22;51029;51.058;13.826;2023-08-24T04:16:49;15.80;99.90
64620;DHT22;51029;51.058;13.826;2023-08-24T04:19:14;15.80;99.90
64620;DHT22;51029;51.058;13.826;2023-08-24T04:21:40;15.80;99.90
64620;DHT22;51029;51.058;13.826;2023-08-24T04:24:05;15.90;99.90
64620;DHT22;51029;51.058;13.826;2023-08-24T04:26:31;15.80;99.90
64620;DHT22;51029;51.058;13.826;2023-08-24T04:28:57;15.90;99.90
64620;DHT22;51029;51.058;13.826;2023-08-24T04:31:23;15.90;99.90
64620;DHT22;51029;51.058;13.826;2023-08-24T04:33:48;15.90;99.90
64620;DHT22;51029;51.058;13.826;2023-08-24T04:36:14;15.90;99.90
64620;DHT22;51029;51.058;13.826;2023-08-24T04:38:39;15.90;99.90
64620;DHT22;51029;51.058;13.826;2023-08-24T04:41:08;15.90;99.90
64620;DHT22;51029;51.058;13.826;2023-08-24T04:43:33;16.00;99.90
64620;DHT22;51029;51.058;13.826;2023-08-24T04:45:59;16.00;99.90
64620;DHT22;51029;51.058;13.826;2023-08-24T04:48:26;16.10;99.90
64620;DHT22;51029;51.058;13.826;2023-08-24T04:50:52;16.10;99.90
64620;DHT22;51029;51.058;13.826;2023-08-24T04:53:21;16.00;99.90
64620;DHT22;51029;51.058;13.826;2023-08-24T04:55:47;16.00;99.90
64620;DHT22;51029;51.058;13.826;2023-08-24T04:58:13;16.10;99.90
64620;DHT22;51029;51.058;13.826;2023-08-24T05:00:39;16.20;99.90
64620;DHT22;51029;51.058;13.826;2023-08-24T05:03:05;16.10;99.90
64620;DHT22;51029;51.058;13.826;2023-08-24T05:05:35;16.20;99.90
64620;DHT22;51029;51.058;13.826;2023-08-24T05:08:02;16.20;99.90
64620;DHT22;51029;51.058;13.826;2023-08-24T05:10:31;16.30;99.90
64620;DHT22;51029;51.058;13.826;2023-08-24T05:12:57;16.30;99.90
64620;DHT22;51029;51.058;13.826;2023-08-24T05:15:23;16.40;99.90
64620;DHT22;51029;51.058;13.826;2023-08-24T05:17:48;16.50;99.90
64620;DHT22;51029;51.058;13.826;2023-08-24T05:20:14;16.50;99.90
64620;DHT22;51029;51.058;13.826;2023-08-24T05:22:40;16.60;99.90
64620;DHT22;51029;51.058;13.826;2023-08-24T05:25:06;16.70;99.90
64620;DHT22;51029;51.058;13.826;2023-08-24T05:27:32;16.80;99.90
64620;DHT22;51029;51.058;13.826;2023-08-24T05:29:58;16.90;99.90
64620;DHT22;51029;51.058;13.826;2023-08-24T05:32:23;16.90;99.90
64620;DHT22;51029;51.058;13.826;2023-08-24T05:34:49;17.00;99.90
64620;DHT22;51029;51.058;13.826;2023-08-24T05:37:15;17.10;99.90
64620;DHT22;51029;51.058;13.826;2023-08-24T05:39:41;17.20;99.90
64620;DHT22;51029;51.058;13.826;2023-08-24T05:42:07;17.20;99.90
64620;DHT22;51029;51.058;13.826;2023-08-24T05:44:33;17.30;99.90
64620;DHT22;51029;51.058;13.826;2023-08-24T05:46:58;17.40;99.90
64620;DHT22;51029;51.058;13.826;2023-08-24T05:49:24;17.50;99.90
64620;DHT22;51029;51.058;13.826;2023-08-24T05:51:50;17.50;99.90
64620;DHT22;51029;51.058;13.826;2023-08-24T05:54:17;17.60;99.90
64620;DHT22;51029;51.058;13.826;2023-08-24T05:56:46;17.80;99.90
64620;DHT22;51029;51.058;13.826;2023-08-24T05:59:12;17.80;99.90
64620;DHT22;51029;51.058;13.826;2023-08-24T06:01:38;17.90;99.90
64620;DHT22;51029;51.058;13.826;2023-08-24T06:04:08;18.00;99.90
64620;DHT22;51029;51.058;13.826;2023-08-24T06:06:34;18.10;99.90
64620;DHT22;51029;51.058;13.826;2023-08-24T06:09:00;18.20;99.90
64620;DHT22;51029;51.058;13.826;2023-08-24T06:11:25;18.30;99.90
64620;DHT22;51029;51.058;13.826;2023-08-24T06:13:51;18.30;99.90
64620;DHT22;51029;51.058;13.826;2023-08-24T06:16:19;18.40;99.90
64620;DHT22;51029;51.058;13.826;2023-08-24T06:18:45;18.50;99.90
64620;DHT22;51029;51.058;13.826;2023-08-24T06:21:10;18.40;99.90
64620;DHT22;51029;51.058;13.826;2023-08-24T06:23:36;18.40;99.90
64620;DHT22;51029;51.058;13.826;2023-08-24T06:26:01;18.50;99.90
64620;DHT22;51029;51.058;13.826;2023-08-24T06:28:27;18.70;99.90
64620;DHT22;51029;51.058;13.826;2023-08-24T06:30:55;18.80;99.90
64620;DHT22;51029;51.058;13.826;2023-08-24T06:33:20;18.90;99.90
64620;DHT22;51029;51.058;13.826;2023-08-24T06:35:46;18.90;99.90
64620;DHT22;51029;51.058;13.826;2023-08-24T06:38:11;19.10;99.90
64620;DHT22;51029;51.058;13.826;2023-08-24T06:40:37;19.20;99.90
64620;DHT22;51029;51.058;13.826;2023-08-24T06:43:03;19.30;99.90
64620;DHT22;51029;51.058;13.826;2023-08-24T06:45:29;19.50;99.90
64620;DHT22;51029;51.058;13.826;2023-08-24T06:47:54;19.60;99.90
64620;DHT22;51029;51.058;13.826;2023-08-24T06:50:20;19.70;99.90
64620;DHT22;51029;51.058;13.826;2023-08-24T06:52:46;19.70;99.90
64620;DHT22;51029;51.058;13.826;2023-08-24T06:55:12;19.70;99.90
64620;DHT22;51029;51.058;13.826;2023-08-24T06:57:38;19.70;99.90
64620;DHT22;51029;51.058;13.826;2023-08-24T07:00:03;19.80;99.90
64620;DHT22;51029;51.058;13.826;2023-08-24T07:02:35;19.80;99.90
64620;DHT22;51029;51.058;13.826;2023-08-24T07:05:00;19.90;99.90
64620;DHT22;51029;51.058;13.826;2023-08-24T07:07:26;20.10;99.90
64620;DHT22;51029;51.058;13.826;2023-08-24T07:09:52;20.40;99.90
64620;DHT22;51029;51.058;13.826;2023-08-24T07:12:17;20.60;99.90
64620;DHT22;51029;51.058;13.826;2023-08-24T07:14:43;20.80;99.90
64620;DHT22;51029;51.058;13.826;2023-08-24T07:17:09;21.00;99.90
64620;DHT22;51029;51.058;13.826;2023-08-24T07:19:35;21.10;99.90
64620;DHT22;51029;51.058;13.826;2023-08-24T07:22:00;21.20;99.90
64620;DHT22;51029;51.058;13.826;2023-08-24T07:24:26;21.20;99.90
64620;DHT22;51029;51.058;13.826;2023-08-24T07:26:54;21.30;99.90
64620;DHT22;51029;51.058;13.826;2023-08-24T07:29:20;21.50;99.90
64620;DHT22;51029;51.058;13.826;2023-08-24T07:31:47;21.70;99.90
64620;DHT22;51029;51.058;13.826;2023-08-24T07:34:12;22.00;99.90
64620;DHT22;51029;51.058;13.826;2023-08-24T07:36:38;22.10;99.90
64620;DHT22;51029;51.058;13.826;2023-08-24T07:39:04;22.30;99.90
64620;DHT22;51029;51.058;13.826;2023-08-24T07:41:30;22.50;99.90
64620;DHT22;51029;51.058;13.826;2023-08-24T07:43:55;22.80;99.90
64620;DHT22;51029;51.058;13.826;2023-08-24T07:46:21;22.90;99.90
64620;DHT22;51029;51.058;13.826;2023-08-24T07:48:46;23.00;99.90
64620;DHT22;51029;51.058;13.826;2023-08-24T07:51:12;23.00;99.90
64620;DHT22;51029;51.058;13.826;2023-08-24T07:53:37;23.10;99.90
64620;DHT22;51029;51.058;13.826;2023-08-24T07:56:03;23.40;99.90
64620;DHT22;51029;51.058;13.826;2023-08-24T07:58:29;23.60;99.90
64620;DHT22;51029;51.058;13.826;2023-08-24T08:00:56;23.80;99.90
64620;DHT22;51029;51.058;13.826;2023-08-24T08:03:22;24.00;99.90
64620;DHT22;51029;51.058;13.826;2023-08-24T08:05:48;24.10;99.90
64620;DHT22;51029;51.058;13.826;2023-08-24T08:08:14;24.30;99.90
64620;DHT22;51029;51.058;13.826;2023-08-24T08:10:40;24.50;99.90
64620;DHT22;51029;51.058;13.826;2023-08-24T08:13:06;24.40;99.90
64620;DHT22;51029;51.058;13.826;2023-08-24T08:15:32;24.70;99.90
64620;DHT22;51029;51.058;13.826;2023-08-24T08:17:57;24.80;99.90
64620;DHT22;51029;51.058;13.826;2023-08-24T08:20:23;24.90;99.90
64620;DHT22;51029;51.058;13.826;2023-08-24T08:22:49;25.10;99.90
64620;DHT22;51029;51.058;13.826;2023-08-24T08:25:15;25.30;99.90
64620;DHT22;51029;51.058;13.826;2023-08-24T08:27:43;25.60;99.90
64620;DHT22;51029;51.058;13.826;2023-08-24T08:30:09;25.90;99.90
64620;DHT22;51029;51.058;13.826;2023-08-24T08:32:35;26.10;99.90
64620;DHT22;51029;51.058;13.826;2023-08-24T08:35:01;26.20;99.90
64620;DHT22;51029;51.058;13.826;2023-08-24T08:37:27;26.30;99.90
64620;DHT22;51029;51.058;13.826;2023-08-24T08:39:53;26.20;99.90
64620;DHT22;51029;51.058;13.826;2023-08-24T08:42:18;26.10;99.90
64620;DHT22;51029;51.058;13.826;2023-08-24T08:44:45;26.30;99.90
64620;DHT22;51029;51.058;13.826;2023-08-24T08:47:11;26.40;99.90
64620;DHT22;51029;51.058;13.826;2023-08-24T08:49:39;26.60;99.90
64620;DHT22;51029;51.058;13.826;2023-08-24T08:52:05;26.70;99.90
64620;DHT22;51029;51.058;13.826;2023-08-24T08:54:31;27.10;99.90
64620;DHT22;51029;51.058;13.826;2023-08-24T08:56:59;27.30;97.90
64620;DHT22;51029;51.058;13.826;2023-08-24T08:59:26;27.50;95.00
64620;DHT22;51029;51.058;13.826;2023-08-24T09:01:58;27.80;93.70
64620;DHT22;51029;51.058;13.826;2023-08-24T09:04:27;28.00;93.90
64620;DHT22;51029;51.058;13.826;2023-08-24T09:06:54;28.20;90.90
64620;DHT22;51029;51.058;13.826;2023-08-24T09:09:21;28.30;88.50
64620;DHT22;51029;51.058;13.826;2023-08-24T09:11:48;28.80;89.00
64620;DHT22;51029;51.058;13.826;2023-08-24T09:14:14;28.90;87.60
64620;DHT22;51029;51.058;13.826;2023-08-24T09:16:41;29.40;87.70
64620;DHT22;51029;51.058;13.826;2023-08-24T09:19:11;30.10;79.90
64620;DHT22;51029;51.058;13.826;2023-08-24T09:21:38;30.70;78.70
64620;DHT22;51029;51.058;13.826;2023-08-24T09:24:05;31.20;75.30
64620;DHT22;51029;51.058;13.826;2023-08-24T09:26:36;31.70;72.70
64620;DHT22;51029;51.058;13.826;2023-08-24T09:29:14;32.10;68.80
64620;DHT22;51029;51.058;13.826;2023-08-24T09:31:41;32.60;65.60
64620;DHT22;51029;51.058;13.826;2023-08-24T09:34:09;33.00;60.90
64620;DHT22;51029;51.058;13.826;2023-08-24T09:36:35;33.30;56.70
64620;DHT22;51029;51.058;13.826;2023-08-24T09:39:02;33.90;54.90
64620;DHT22;51029;51.058;13.826;2023-08-24T09:41:44;34.30;54.50
64620;DHT22;51029;51.058;13.826;2023-08-24T09:44:10;34.80;52.70
64620;DHT22;51029;51.058;13.826;2023-08-24T09:46:38;35.40;51.70
64620;DHT22;51029;51.058;13.826;2023-08-24T09:49:08;35.90;50.80
64620;DHT22;51029;51.058;13.826;2023-08-24T09:51:34;36.30;48.10
64620;DHT22;51029;51.058;13.826;2023-08-24T09:54:05;36.80;45.90
64620;DHT22;51029;51.058;13.826;2023-08-24T09:56:34;37.20;44.10
64620;DHT22;51029;51.058;13.826;2023-08-24T09:59:00;37.90;45.50
64620;DHT22;51029;51.058;13.826;2023-08-24T10:01:30;38.70;44.40
64620;DHT22;51029;51.058;13.826;2023-08-24T10:03:57;39.30;41.60
64620;DHT22;51029;51.058;13.826;2023-08-24T10:06:27;39.10;39.30
64620;DHT22;51029;51.058;13.826;2023-08-24T10:08:58;38.70;38.50
64620;DHT22;51029;51.058;13.826;2023-08-24T10:11:28;38.70;38.50
64620;DHT22;51029;51.058;13.826;2023-08-24T10:14:18;38.30;38.60
64620;DHT22;51029;51.058;13.826;2023-08-24T10:16:46;38.00;38.60
64620;DHT22;51029;51.058;13.826;2023-08-24T10:19:13;37.80;41.70
64620;DHT22;51029;51.058;13.826;2023-08-24T10:21:39;37.70;40.60
64620;DHT22;51029;51.058;13.826;2023-08-24T10:24:06;37.40;39.90
64620;DHT22;51029;51.058;13.826;2023-08-24T10:26:33;37.40;40.70
64620;DHT22;51029;51.058;13.826;2023-08-24T10:29:00;37.00;40.20
64620;DHT22;51029;51.058;13.826;2023-08-24T10:31:26;37.20;39.80
64620;DHT22;51029;51.058;13.826;2023-08-24T10:33:52;37.00;39.90
64620;DHT22;51029;51.058;13.826;2023-08-24T10:36:18;36.80;39.90
64620;DHT22;51029;51.058;13.826;2023-08-24T10:38:44;36.30;39.40
64620;DHT22;51029;51.058;13.826;2023-08-24T10:41:10;36.00;40.40
64620;DHT22;51029;51.058;13.826;2023-08-24T10:43:40;35.80;40.40
64620;DHT22;51029;51.058;13.826;2023-08-24T10:46:13;35.90;40.80
64620;DHT22;51029;51.058;13.826;2023-08-24T10:53:39;36.50;42.70
64620;DHT22;51029;51.058;13.826;2023-08-24T10:56:12;37.10;43.00
64620;DHT22;51029;51.058;13.826;2023-08-24T10:58:38;38.40;39.10
64620;DHT22;51029;51.058;13.826;2023-08-24T11:01:03;39.00;38.00
64620;DHT22;51029;51.058;13.826;2023-08-24T11:03:35;39.10;37.40
64620;DHT22;51029;51.058;13.826;2023-08-24T11:06:00;39.70;36.00
64620;DHT22;51029;51.058;13.826;2023-08-24T11:08:45;39.00;36.20
64620;DHT22;51029;51.058;13.826;2023-08-24T11:11:21;38.00;36.70
64620;DHT22;51029;51.058;13.826;2023-08-24T11:14:22;37.00;39.60
64620;DHT22;51029;51.058;13.826;2023-08-24T11:16:50;36.40;42.30
64620;DHT22;51029;51.058;13.826;2023-08-24T11:19:16;35.50;40.90
64620;DHT22;51029;51.058;13.826;2023-08-24T11:21:43;35.10;43.40
64620;DHT22;51029;51.058;13.826;2023-08-24T11:24:10;34.90;45.20
64620;DHT22;51029;51.058;13.826;2023-08-24T11:26:42;35.20;45.50
64620;DHT22;51029;51.058;13.826;2023-08-24T11:29:07;36.00;44.70
64620;DHT22;51029;51.058;13.826;2023-08-24T11:31:34;37.20;42.70
64620;DHT22;51029;51.058;13.826;2023-08-24T11:34:00;37.80;41.80
64620;DHT22;51029;51.058;13.826;2023-08-24T11:36:27;37.50;41.50
64620;DHT22;51029;51.058;13.826;2023-08-24T11:38:56;39.60;39.10
64620;DHT22;51029;51.058;13.826;2023-08-24T11:41:23;42.00;35.50
64620;DHT22;51029;51.058;13.826;2023-08-24T11:43:49;42.50;33.70
64620;DHT22;51029;51.058;13.826;2023-08-24T11:46:17;44.20;33.30
64620;DHT22;51029;51.058;13.826;2023-08-24T11:48:43;44.50;31.10
64620;DHT22;51029;51.058;13.826;2023-08-24T11:51:11;44.10;29.90
64620;DHT22;51029;51.058;13.826;2023-08-24T11:53:45;43.20;29.80
64620;DHT22;51029;51.058;13.826;2023-08-24T11:56:11;41.60;31.20
64620;DHT22;51029;51.058;13.826;2023-08-24T11:58:41;40.40;32.50
64620;DHT22;51029;51.058;13.826;2023-08-24T12:01:11;39.70;33.90
64620;DHT22;51029;51.058;13.826;2023-08-24T12:03:37;40.00;33.90
64620;DHT22;51029;51.058;13.826;2023-08-24T12:06:14;40.00;33.90
64620;DHT22;51029;51.058;13.826;2023-08-24T12:08:41;38.70;35.00
64620;DHT22;51029;51.058;13.826;2023-08-24T12:11:12;37.80;36.00
64620;DHT22;51029;51.058;13.826;2023-08-24T12:13:38;36.90;37.40
64620;DHT22;51029;51.058;13.826;2023-08-24T12:16:07;36.20;38.10
64620;DHT22;51029;51.058;13.826;2023-08-24T12:18:45;35.50;39.10
64620;DHT22;51029;51.058;13.826;2023-08-24T12:21:11;35.10;40.70
64620;DHT22;51029;51.058;13.826;2023-08-24T12:23:38;34.90;41.70
64620;DHT22;51029;51.058;13.826;2023-08-24T12:26:04;34.60;45.10
64620;DHT22;51029;51.058;13.826;2023-08-24T12:28:33;34.70;44.40
64620;DHT22;51029;51.058;13.826;2023-08-24T12:30:59;35.20;42.70
64620;DHT22;51029;51.058;13.826;2023-08-24T12:33:30;36.40;40.60
64620;DHT22;51029;51.058;13.826;2023-08-24T12:35:56;38.00;39.20
64620;DHT22;51029;51.058;13.826;2023-08-24T12:38:24;39.20;37.80
64620;DHT22;51029;51.058;13.826;2023-08-24T12:40:50;38.90;37.20
64620;DHT22;51029;51.058;13.826;2023-08-24T12:43:15;38.20;37.80
64620;DHT22;51029;51.058;13.826;2023-08-24T12:45:42;37.60;42.10
64620;DHT22;51029;51.058;13.826;2023-08-24T12:48:07;36.50;40.00
64620;DHT22;51029;51.058;13.826;2023-08-24T12:50:34;35.60;40.60
64620;DHT22;51029;51.058;13.826;2023-08-24T12:53:00;34.80;43.80
64620;DHT22;51029;51.058;13.826;2023-08-24T12:55:26;34.50;43.20
64620;DHT22;51029;51.058;13.826;2023-08-24T12:57:52;34.70;42.80
64620;DHT22;51029;51.058;13.826;2023-08-24T13:00:21;34.80;42.30
64620;DHT22;51029;51.058;13.826;2023-08-24T13:02:48;35.60;42.60
64620;DHT22;51029;51.058;13.826;2023-08-24T13:05:13;38.30;41.20
64620;DHT22;51029;51.058;13.826;2023-08-24T13:07:39;40.80;39.00
64620;DHT22;51029;51.058;13.826;2023-08-24T13:10:05;42.90;33.90
64620;DHT22;51029;51.058;13.826;2023-08-24T13:12:32;44.50;34.00
64620;DHT22;51029;51.058;13.826;2023-08-24T13:14:57;43.70;32.00
64620;DHT22;51029;51.058;13.826;2023-08-24T13:17:24;43.10;32.60
64620;DHT22;51029;51.058;13.826;2023-08-24T13:19:49;43.40;31.80
64620;DHT22;51029;51.058;13.826;2023-08-24T13:22:15;43.70;31.50
64620;DHT22;51029;51.058;13.826;2023-08-24T13:24:41;44.90;31.10
64620;DHT22;51029;51.058;13.826;2023-08-24T13:27:09;46.50;29.90
64620;DHT22;51029;51.058;13.826;2023-08-24T13:29:36;47.20;29.10
64620;DHT22;51029;51.058;13.826;2023-08-24T13:32:02;48.20;28.10
64620;DHT22;51029;51.058;13.826;2023-08-24T13:34:28;49.50;27.00
64620;DHT22;51029;51.058;13.826;2023-08-24T13:36:53;49.50;26.50
64620;DHT22;51029;51.058;13.826;2023-08-24T13:39:19;51.00;25.90
64620;DHT22;51029;51.058;13.826;2023-08-24T13:41:44;51.50;25.30
64620;DHT22;51029;51.058;13.826;2023-08-24T13:44:10;52.50;24.40
64620;DHT22;51029;51.058;13.826;2023-08-24T13:46:35;52.40;23.80
64620;DHT22;51029;51.058;13.826;2023-08-24T13:49:01;53.40;23.30
64620;DHT22;51029;51.058;13.826;2023-08-24T13:51:27;54.00;22.80
64620;DHT22;51029;51.058;13.826;2023-08-24T13:53:53;53.80;22.80
64620;DHT22;51029;51.058;13.826;2023-08-24T13:56:19;54.20;22.50
64620;DHT22;51029;51.058;13.826;2023-08-24T13:58:45;53.80;22.50
64620;DHT22;51029;51.058;13.826;2023-08-24T14:01:12;53.50;22.60
64620;DHT22;51029;51.058;13.826;2023-08-24T14:03:39;53.50;22.30
64620;DHT22;51029;51.058;13.826;2023-08-24T14:06:05;53.60;22.10
64620;DHT22;51029;51.058;13.826;2023-08-24T14:08:31;54.10;22.00
64620;DHT22;51029;51.058;13.826;2023-08-24T14:10:56;53.50;22.00
64620;DHT22;51029;51.058;13.826;2023-08-24T14:13:22;53.40;22.30
64620;DHT22;51029;51.058;13.826;2023-08-24T14:15:50;53.90;22.20
64620;DHT22;51029;51.058;13.826;2023-08-24T14:18:16;54.20;22.40
64620;DHT22;51029;51.058;13.826;2023-08-24T14:20:42;53.70;21.80
64620;DHT22;51029;51.058;13.826;2023-08-24T14:23:08;53.40;22.20
64620;DHT22;51029;51.058;13.826;2023-08-24T14:25:33;52.90;22.30
64620;DHT22;51029;51.058;13.826;2023-08-24T14:27:59;52.30;22.70
64620;DHT22;51029;51.058;13.826;2023-08-24T14:30:25;51.90;22.80
64620;DHT22;51029;51.058;13.826;2023-08-24T14:32:50;51.00;22.80
64620;DHT22;51029;51.058;13.826;2023-08-24T14:35:16;51.00;23.30
64620;DHT22;51029;51.058;13.826;2023-08-24T14:37:41;51.00;23.20
64620;DHT22;51029;51.058;13.826;2023-08-24T14:40:07;50.80;23.50
64620;DHT22;51029;51.058;13.826;2023-08-24T14:42:33;50.80;23.50
64620;DHT22;51029;51.058;13.826;2023-08-24T14:44:59;51.30;23.00
64620;DHT22;51029;51.058;13.826;2023-08-24T14:47:24;51.00;23.10
64620;DHT22;51029;51.058;13.826;2023-08-24T14:49:50;50.00;23.30
64620;DHT22;51029;51.058;13.826;2023-08-24T14:52:16;48.10;24.30
64620;DHT22;51029;51.058;13.826;2023-08-24T14:54:41;46.20;25.60
64620;DHT22;51029;51.058;13.826;2023-08-24T14:57:07;44.40;26.60
64620;DHT22;51029;51.058;13.826;2023-08-24T14:59:32;43.30;27.60
64620;DHT22;51029;51.058;13.826;2023-08-24T15:01:59;43.00;28.30
64620;DHT22;51029;51.058;13.826;2023-08-24T15:04:26;43.00;28.60
64620;DHT22;51029;51.058;13.826;2023-08-24T15:06:52;43.90;29.30
64620;DHT22;51029;51.058;13.826;2023-08-24T15:09:18;44.70;28.70
64620;DHT22;51029;51.058;13.826;2023-08-24T15:11:43;45.20;29.00
64620;DHT22;51029;51.058;13.826;2023-08-24T15:14:09;45.70;27.40
64620;DHT22;51029;51.058;13.826;2023-08-24T15:16:34;44.70;27.30
64620;DHT22;51029;51.058;13.826;2023-08-24T15:19:00;44.00;29.50
64620;DHT22;51029;51.058;13.826;2023-08-24T15:21:26;44.10;28.60